Terminal Aerodrome Forecast
Issued by NWS Wilmington, OH

Current Version | Previous Version | Graphics & Text | Print | Product List | Glossary On
Versions: 1 2 3 4 5 6 7 8 9 10 11 12 13 14 15 16 17 18 19 20 21
503
FTUS41 KILN 200300 AAA
TAFCMH
TAF AMD
KCMH 200300Z 2003/2024 10006KT P6SM OVC120
     FM200400 10007KT P6SM VCSH OVC100
     FM200600 11007KT P6SM -RA OVC025
      TEMPO 2007/2011 3SM RA BR OVC015
     FM201100 14007KT 3SM -RA BR OVC007
     FM201400 17007KT 4SM BR VCSH OVC005
     FM201600 22008KT P6SM OVC007
     FM202100 21006KT P6SM BKN018=

USA.gov is the U.S. government's official web portal to all federal, state and local government web resources and services.